sensor_id;sensor_type;location;lat;lon;timestamp;pressure;altitude;pressure_sealevel;temperature;humidity
80137;BME280;69466;55.948;37.484;2024-01-10T00:02:24;98394.09;;;-0.81;80.88
80137;BME280;69466;55.948;37.484;2024-01-10T00:04:50;98394.31;;;-0.83;80.29
80137;BME280;69466;55.948;37.484;2024-01-10T00:07:17;98389.78;;;-0.82;80.42
80137;BME280;69466;55.948;37.484;2024-01-10T00:09:43;98380.25;;;-0.77;80.26
80137;BME280;69466;55.948;37.484;2024-01-10T00:12:09;98376.47;;;-0.82;80.33
80137;BME280;69466;55.948;37.484;2024-01-10T00:14:35;98370.59;;;-0.78;80.25
80137;BME280;69466;55.948;37.484;2024-01-10T00:17:02;98389.38;;;-0.71;80.21
80137;BME280;69466;55.948;37.484;2024-01-10T00:19:28;98377.44;;;-0.75;80.19
80137;BME280;69466;55.948;37.484;2024-01-10T00:21:53;98372.56;;;-0.72;80.14
80137;BME280;69466;55.948;37.484;2024-01-10T00:24:19;98382.50;;;-0.66;80.28
80137;BME280;69466;55.948;37.484;2024-01-10T00:26:45;98372.41;;;-0.70;80.54
80137;BME280;69466;55.948;37.484;2024-01-10T00:29:11;98378.72;;;-0.71;80.21
80137;BME280;69466;55.948;37.484;2024-01-10T00:31:38;98344.78;;;-0.92;80.24
80137;BME280;69466;55.948;37.484;2024-01-10T00:34:04;98396.59;;;-0.57;79.96
80137;BME280;69466;55.948;37.484;2024-01-10T00:36:30;98345.00;;;-0.79;80.27
80137;BME280;69466;55.948;37.484;2024-01-10T00:38:56;98395.81;;;-0.43;79.88
80137;BME280;69466;55.948;37.484;2024-01-10T00:41:22;98391.94;;;-0.40;79.27
80137;BME280;69466;55.948;37.484;2024-01-10T00:43:48;98399.22;;;-0.34;79.29
80137;BME280;69466;55.948;37.484;2024-01-10T00:46:16;98394.81;;;-0.42;79.79
80137;BME280;69466;55.948;37.484;2024-01-10T00:48:42;98393.59;;;-0.39;79.82
80137;BME280;69466;55.948;37.484;2024-01-10T00:51:09;98407.69;;;-0.31;79.35
80137;BME280;69466;55.948;37.484;2024-01-10T00:53:35;98404.69;;;-0.28;79.50
80137;BME280;69466;55.948;37.484;2024-01-10T00:56:05;98426.94;;;-0.21;78.94
80137;BME280;69466;55.948;37.484;2024-01-10T00:58:31;98413.31;;;-0.26;78.81
80137;BME280;69466;55.948;37.484;2024-01-10T01:00:57;98416.38;;;-0.14;78.96
80137;BME280;69466;55.948;37.484;2024-01-10T01:03:23;98415.47;;;-0.07;78.16
80137;BME280;69466;55.948;37.484;2024-01-10T01:05:49;98401.38;;;-0.15;78.42
80137;BME280;69466;55.948;37.484;2024-01-10T01:08:15;98411.25;;;-0.01;77.72
80137;BME280;69466;55.948;37.484;2024-01-10T01:10:42;98409.75;;;-0.04;77.66
80137;BME280;69466;55.948;37.484;2024-01-10T01:13:09;98439.28;;;0.10;77.49
80137;BME280;69466;55.948;37.484;2024-01-10T01:15:35;98421.34;;;-0.11;76.94
80137;BME280;69466;55.948;37.484;2024-01-10T01:18:01;98419.41;;;-0.03;77.06
80137;BME280;69466;55.948;37.484;2024-01-10T01:20:27;98416.28;;;-0.06;76.63
80137;BME280;69466;55.948;37.484;2024-01-10T01:22:53;98431.84;;;0.05;76.28
80137;BME280;69466;55.948;37.484;2024-01-10T01:25:19;98435.59;;;-0.04;76.95
80137;BME280;69466;55.948;37.484;2024-01-10T01:27:45;98449.94;;;-0.05;76.74
80137;BME280;69466;55.948;37.484;2024-01-10T01:30:11;98452.06;;;-0.01;76.46
80137;BME280;69466;55.948;37.484;2024-01-10T01:32:37;98454.25;;;-0.19;76.81
80137;BME280;69466;55.948;37.484;2024-01-10T01:35:03;98468.88;;;-0.15;76.06
80137;BME280;69466;55.948;37.484;2024-01-10T01:37:29;98470.16;;;-0.11;75.95
80137;BME280;69466;55.948;37.484;2024-01-10T01:39:55;98482.19;;;-0.15;75.62
80137;BME280;69466;55.948;37.484;2024-01-10T01:42:21;98483.06;;;-0.22;74.90
80137;BME280;69466;55.948;37.484;2024-01-10T01:44:47;98496.41;;;-0.22;74.54
80137;BME280;69466;55.948;37.484;2024-01-10T01:47:13;98502.94;;;-0.48;74.56
80137;BME280;69466;55.948;37.484;2024-01-10T01:49:41;98521.50;;;-0.39;74.21
80137;BME280;69466;55.948;37.484;2024-01-10T01:52:09;98548.00;;;-0.38;75.29
80137;BME280;69466;55.948;37.484;2024-01-10T01:54:36;98551.25;;;-0.51;76.36
80137;BME280;69466;55.948;37.484;2024-01-10T01:57:03;98588.75;;;-0.60;80.79
80137;BME280;69466;55.948;37.484;2024-01-10T01:59:29;98561.03;;;-0.82;76.49
80137;BME280;69466;55.948;37.484;2024-01-10T02:01:55;98572.41;;;-0.96;74.81
80137;BME280;69466;55.948;37.484;2024-01-10T02:04:24;98587.94;;;-1.08;73.84
80137;BME280;69466;55.948;37.484;2024-01-10T02:06:52;98579.97;;;-1.16;73.77
80137;BME280;69466;55.948;37.484;2024-01-10T02:09:18;98564.84;;;-1.23;73.50
80137;BME280;69466;55.948;37.484;2024-01-10T02:11:43;98616.06;;;-1.21;72.87
80137;BME280;69466;55.948;37.484;2024-01-10T02:14:10;98612.59;;;-1.22;73.05
80137;BME280;69466;55.948;37.484;2024-01-10T02:16:36;98614.09;;;-1.36;73.32
80137;BME280;69466;55.948;37.484;2024-01-10T02:19:20;98641.72;;;-1.45;72.68
80137;BME280;69466;55.948;37.484;2024-01-10T02:21:46;98651.34;;;-1.60;72.08
80137;BME280;69466;55.948;37.484;2024-01-10T02:24:12;98655.53;;;-1.65;71.79
80137;BME280;69466;55.948;37.484;2024-01-10T02:26:39;98675.78;;;-1.64;71.54
80137;BME280;69466;55.948;37.484;2024-01-10T02:29:05;98682.63;;;-1.70;71.52
80137;BME280;69466;55.948;37.484;2024-01-10T02:31:32;98705.88;;;-1.80;71.76
80137;BME280;69466;55.948;37.484;2024-01-10T02:33:57;98719.44;;;-1.99;70.51
80137;BME280;69466;55.948;37.484;2024-01-10T02:36:23;98715.25;;;-2.10;70.20
80137;BME280;69466;55.948;37.484;2024-01-10T02:38:49;98718.03;;;-2.19;70.23
80137;BME280;69466;55.948;37.484;2024-01-10T02:41:16;98706.66;;;-2.46;69.82
80137;BME280;69466;55.948;37.484;2024-01-10T02:43:42;98737.91;;;-2.40;69.37
80137;BME280;69466;55.948;37.484;2024-01-10T02:46:07;98750.47;;;-2.50;69.75
80137;BME280;69466;55.948;37.484;2024-01-10T02:48:33;98741.50;;;-2.75;69.71
80137;BME280;69466;55.948;37.484;2024-01-10T02:50:59;98772.34;;;-2.82;69.75
80137;BME280;69466;55.948;37.484;2024-01-10T02:53:25;98773.63;;;-2.86;69.18
80137;BME280;69466;55.948;37.484;2024-01-10T02:55:51;98789.72;;;-2.87;70.21
80137;BME280;69466;55.948;37.484;2024-01-10T02:58:17;98772.94;;;-3.14;70.63
80137;BME280;69466;55.948;37.484;2024-01-10T03:00:45;98804.50;;;-3.02;70.69
80137;BME280;69466;55.948;37.484;2024-01-10T03:03:11;98801.84;;;-3.02;71.07
80137;BME280;69466;55.948;37.484;2024-01-10T03:05:37;98820.53;;;-3.12;70.34
80137;BME280;69466;55.948;37.484;2024-01-10T03:08:03;98835.91;;;-3.16;70.68
80137;BME280;69466;55.948;37.484;2024-01-10T03:10:32;98844.25;;;-3.28;69.76
80137;BME280;69466;55.948;37.484;2024-01-10T03:12:58;98860.00;;;-3.44;69.67
80137;BME280;69466;55.948;37.484;2024-01-10T03:15:24;98867.31;;;-3.56;69.27
80137;BME280;69466;55.948;37.484;2024-01-10T03:17:51;98880.22;;;-3.71;69.45
80137;BME280;69466;55.948;37.484;2024-01-10T03:20:17;98887.69;;;-3.84;69.00
80137;BME280;69466;55.948;37.484;2024-01-10T03:22:43;98897.66;;;-3.95;69.15
80137;BME280;69466;55.948;37.484;2024-01-10T03:25:09;98891.97;;;-4.00;68.92
80137;BME280;69466;55.948;37.484;2024-01-10T03:27:35;98896.06;;;-4.16;68.82
80137;BME280;69466;55.948;37.484;2024-01-10T03:30:01;98926.31;;;-4.18;69.38
80137;BME280;69466;55.948;37.484;2024-01-10T03:32:27;98921.34;;;-4.31;69.50
80137;BME280;69466;55.948;37.484;2024-01-10T03:34:53;98942.25;;;-4.37;69.80
80137;BME280;69466;55.948;37.484;2024-01-10T03:37:19;98959.94;;;-4.38;69.64
80137;BME280;69466;55.948;37.484;2024-01-10T03:39:45;98953.25;;;-4.42;69.06
80137;BME280;69466;55.948;37.484;2024-01-10T03:42:11;98970.53;;;-4.48;68.95
80137;BME280;69466;55.948;37.484;2024-01-10T03:44:37;98987.97;;;-4.55;68.66
80137;BME280;69466;55.948;37.484;2024-01-10T03:47:03;98988.50;;;-4.70;69.09
80137;BME280;69466;55.948;37.484;2024-01-10T03:49:29;99003.69;;;-4.63;68.57
80137;BME280;69466;55.948;37.484;2024-01-10T03:51:55;99017.63;;;-4.70;69.33
80137;BME280;69466;55.948;37.484;2024-01-10T03:54:21;99021.50;;;-4.84;68.65
80137;BME280;69466;55.948;37.484;2024-01-10T03:56:47;99046.59;;;-4.78;68.90
80137;BME280;69466;55.948;37.484;2024-01-10T03:59:13;99043.09;;;-4.79;68.52
80137;BME280;69466;55.948;37.484;2024-01-10T04:01:39;99078.06;;;-4.75;68.55
80137;BME280;69466;55.948;37.484;2024-01-10T04:04:05;99106.69;;;-4.90;68.80
80137;BME280;69466;55.948;37.484;2024-01-10T04:06:31;99111.28;;;-5.02;68.92
80137;BME280;69466;55.948;37.484;2024-01-10T04:08:57;99105.72;;;-5.29;68.92
80137;BME280;69466;55.948;37.484;2024-01-10T04:11:23;99135.88;;;-5.11;68.36
80137;BME280;69466;55.948;37.484;2024-01-10T04:13:50;99126.81;;;-5.18;68.58
80137;BME280;69466;55.948;37.484;2024-01-10T04:16:16;99139.09;;;-5.38;68.76
80137;BME280;69466;55.948;37.484;2024-01-10T04:18:42;99153.78;;;-5.45;68.16
80137;BME280;69466;55.948;37.484;2024-01-10T04:21:09;99133.56;;;-5.55;68.47
80137;BME280;69466;55.948;37.484;2024-01-10T04:23:35;99153.28;;;-5.59;69.13
80137;BME280;69466;55.948;37.484;2024-01-10T04:26:01;99159.72;;;-5.73;69.17
80137;BME280;69466;55.948;37.484;2024-01-10T04:28:28;99157.97;;;-5.84;68.54
80137;BME280;69466;55.948;37.484;2024-01-10T04:30:54;99178.72;;;-6.00;68.41
80137;BME280;69466;55.948;37.484;2024-01-10T04:33:20;99188.03;;;-6.16;69.01
80137;BME280;69466;55.948;37.484;2024-01-10T04:35:46;99203.97;;;-6.18;69.28
80137;BME280;69466;55.948;37.484;2024-01-10T04:38:12;99200.91;;;-6.34;69.07
80137;BME280;69466;55.948;37.484;2024-01-10T04:40:38;99214.56;;;-6.29;69.17
80137;BME280;69466;55.948;37.484;2024-01-10T04:43:04;99211.84;;;-6.39;68.94
80137;BME280;69466;55.948;37.484;2024-01-10T04:45:30;99223.72;;;-6.33;69.29
80137;BME280;69466;55.948;37.484;2024-01-10T04:47:56;99238.34;;;-6.40;69.43
80137;BME280;69466;55.948;37.484;2024-01-10T04:50:22;99221.69;;;-6.63;69.23
80137;BME280;69466;55.948;37.484;2024-01-10T04:52:48;99248.31;;;-6.55;68.84
80137;BME280;69466;55.948;37.484;2024-01-10T04:55:14;99261.41;;;-6.64;68.72
80137;BME280;69466;55.948;37.484;2024-01-10T04:57:40;99268.69;;;-6.68;68.89
80137;BME280;69466;55.948;37.484;2024-01-10T05:00:06;99282.50;;;-6.76;68.84
80137;BME280;69466;55.948;37.484;2024-01-10T05:02:32;99292.06;;;-6.86;68.31
80137;BME280;69466;55.948;37.484;2024-01-10T05:04:58;99279.84;;;-6.87;68.21
80137;BME280;69466;55.948;37.484;2024-01-10T05:07:24;99281.41;;;-6.84;68.68
80137;BME280;69466;55.948;37.484;2024-01-10T05:09:50;99305.97;;;-6.73;68.96
80137;BME280;69466;55.948;37.484;2024-01-10T05:12:16;99302.97;;;-6.90;68.94
80137;BME280;69466;55.948;37.484;2024-01-10T05:14:42;99308.09;;;-7.00;69.44
80137;BME280;69466;55.948;37.484;2024-01-10T05:17:08;99325.13;;;-7.04;69.14
80137;BME280;69466;55.948;37.484;2024-01-10T05:19:34;99329.94;;;-6.98;68.67
80137;BME280;69466;55.948;37.484;2024-01-10T05:22:00;99328.84;;;-7.06;69.51
80137;BME280;69466;55.948;37.484;2024-01-10T05:24:26;99344.41;;;-7.03;69.69
80137;BME280;69466;55.948;37.484;2024-01-10T05:26:52;99324.72;;;-7.22;69.26
80137;BME280;69466;55.948;37.484;2024-01-10T05:29:18;99344.25;;;-7.24;68.62
80137;BME280;69466;55.948;37.484;2024-01-10T05:31:45;99362.94;;;-7.16;68.96
80137;BME280;69466;55.948;37.484;2024-01-10T05:34:12;99341.78;;;-7.38;69.14
80137;BME280;69466;55.948;37.484;2024-01-10T05:36:38;99379.28;;;-7.35;68.82
80137;BME280;69466;55.948;37.484;2024-01-10T05:39:04;99394.34;;;-7.37;68.53
80137;BME280;69466;55.948;37.484;2024-01-10T05:41:30;99392.78;;;-7.39;68.52
80137;BME280;69466;55.948;37.484;2024-01-10T05:43:56;99400.25;;;-7.33;68.41
80137;BME280;69466;55.948;37.484;2024-01-10T05:46:22;99398.50;;;-7.45;67.96
80137;BME280;69466;55.948;37.484;2024-01-10T05:48:48;99424.13;;;-7.47;68.10
80137;BME280;69466;55.948;37.484;2024-01-10T05:51:14;99416.78;;;-7.55;68.08
80137;BME280;69466;55.948;37.484;2024-01-10T05:53:41;99422.16;;;-7.56;68.11
80137;BME280;69466;55.948;37.484;2024-01-10T05:56:07;99438.91;;;-7.57;68.20
80137;BME280;69466;55.948;37.484;2024-01-10T05:58:33;99443.81;;;-7.77;67.97
80137;BME280;69466;55.948;37.484;2024-01-10T06:00:59;99464.97;;;-7.78;68.16
80137;BME280;69466;55.948;37.484;2024-01-10T06:03:25;99452.44;;;-7.87;68.08
80137;BME280;69466;55.948;37.484;2024-01-10T06:05:51;99477.53;;;-7.82;68.45
80137;BME280;69466;55.948;37.484;2024-01-10T06:08:17;99485.66;;;-7.85;68.35
80137;BME280;69466;55.948;37.484;2024-01-10T06:10:43;99492.91;;;-7.88;68.08
80137;BME280;69466;55.948;37.484;2024-01-10T06:13:09;99499.22;;;-7.91;67.75
80137;BME280;69466;55.948;37.484;2024-01-10T06:15:35;99517.75;;;-8.05;68.08
80137;BME280;69466;55.948;37.484;2024-01-10T06:18:01;99509.25;;;-8.21;68.07
80137;BME280;69466;55.948;37.484;2024-01-10T06:20:27;99529.63;;;-8.25;68.41
80137;BME280;69466;55.948;37.484;2024-01-10T06:22:53;99526.28;;;-8.27;67.93
80137;BME280;69466;55.948;37.484;2024-01-10T06:25:20;99539.53;;;-8.28;67.84
80137;BME280;69466;55.948;37.484;2024-01-10T06:27:46;99554.28;;;-8.38;68.30
80137;BME280;69466;55.948;37.484;2024-01-10T06:30:12;99546.59;;;-8.41;68.15
80137;BME280;69466;55.948;37.484;2024-01-10T06:32:38;99551.91;;;-8.56;68.00
80137;BME280;69466;55.948;37.484;2024-01-10T06:35:04;99580.16;;;-8.45;68.58
80137;BME280;69466;55.948;37.484;2024-01-10T06:37:31;99575.59;;;-8.56;68.78
80137;BME280;69466;55.948;37.484;2024-01-10T06:39:58;99596.88;;;-8.46;68.77
80137;BME280;69466;55.948;37.484;2024-01-10T06:42:25;99571.06;;;-8.66;69.12
80137;BME280;69466;55.948;37.484;2024-01-10T06:44:52;99587.91;;;-8.56;68.91
80137;BME280;69466;55.948;37.484;2024-01-10T06:47:18;99592.75;;;-8.50;68.48
80137;BME280;69466;55.948;37.484;2024-01-10T06:49:44;99577.78;;;-8.62;68.67
80137;BME280;69466;55.948;37.484;2024-01-10T06:52:10;99596.84;;;-8.59;69.00
80137;BME280;69466;55.948;37.484;2024-01-10T06:54:36;99594.94;;;-8.57;68.70
80137;BME280;69466;55.948;37.484;2024-01-10T06:57:02;99576.84;;;-8.61;68.26
80137;BME280;69466;55.948;37.484;2024-01-10T06:59:28;99595.94;;;-8.45;68.40
80137;BME280;69466;55.948;37.484;2024-01-10T07:01:54;99599.22;;;-8.41;67.50
80137;BME280;69466;55.948;37.484;2024-01-10T07:04:23;99621.94;;;-8.40;67.57
80137;BME280;69466;55.948;37.484;2024-01-10T07:06:50;99625.59;;;-8.43;67.82
80137;BME280;69466;55.948;37.484;2024-01-10T07:09:17;99619.75;;;-8.61;67.65
80137;BME280;69466;55.948;37.484;2024-01-10T07:11:47;99631.97;;;-8.60;68.09
80137;BME280;69466;55.948;37.484;2024-01-10T07:14:14;99647.38;;;-8.54;67.56
80137;BME280;69466;55.948;37.484;2024-01-10T07:16:41;99651.13;;;-8.58;67.94
80137;BME280;69466;55.948;37.484;2024-01-10T07:19:14;99641.00;;;-8.64;67.13
80137;BME280;69466;55.948;37.484;2024-01-10T07:21:40;99663.22;;;-8.55;67.09
80137;BME280;69466;55.948;37.484;2024-01-10T07:24:08;99656.69;;;-8.62;67.16
80137;BME280;69466;55.948;37.484;2024-01-10T07:26:37;99673.75;;;-8.55;67.28
80137;BME280;69466;55.948;37.484;2024-01-10T07:29:03;99663.31;;;-8.57;67.25
80137;BME280;69466;55.948;37.484;2024-01-10T07:31:30;99678.16;;;-8.56;67.28
80137;BME280;69466;55.948;37.484;2024-01-10T07:33:56;99678.94;;;-8.54;66.76
80137;BME280;69466;55.948;37.484;2024-01-10T07:36:26;99693.66;;;-8.51;66.86
80137;BME280;69466;55.948;37.484;2024-01-10T07:38:53;99661.41;;;-8.67;66.23
80137;BME280;69466;55.948;37.484;2024-01-10T07:41:19;99695.13;;;-8.47;66.53
80137;BME280;69466;55.948;37.484;2024-01-10T07:43:46;99695.06;;;-8.45;66.18
80137;BME280;69466;55.948;37.484;2024-01-10T07:46:12;99700.97;;;-8.42;66.21
80137;BME280;69466;55.948;37.484;2024-01-10T07:48:38;99701.72;;;-8.40;66.13
80137;BME280;69466;55.948;37.484;2024-01-10T07:51:04;99697.19;;;-8.38;65.37
80137;BME280;69466;55.948;37.484;2024-01-10T07:53:30;99680.75;;;-8.41;65.35
80137;BME280;69466;55.948;37.484;2024-01-10T07:55:56;99697.97;;;-8.23;65.68
80137;BME280;69466;55.948;37.484;2024-01-10T07:58:22;99691.66;;;-8.21;64.99
80137;BME280;69466;55.948;37.484;2024-01-10T08:00:48;99690.41;;;-8.15;64.78
80137;BME280;69466;55.948;37.484;2024-01-10T08:03:14;99670.84;;;-8.11;64.88
80137;BME280;69466;55.948;37.484;2024-01-10T08:05:43;99683.28;;;-8.00;64.66
80137;BME280;69466;55.948;37.484;2024-01-10T08:08:09;99679.31;;;-7.93;64.29
80137;BME280;69466;55.948;37.484;2024-01-10T08:10:39;99696.84;;;-7.80;64.28
80137;BME280;69466;55.948;37.484;2024-01-10T08:13:06;99690.09;;;-7.84;63.95
80137;BME280;69466;55.948;37.484;2024-01-10T08:15:32;99696.00;;;-7.80;64.42
80137;BME280;69466;55.948;37.484;2024-01-10T08:18:00;99701.66;;;-7.74;63.76
80137;BME280;69466;55.948;37.484;2024-01-10T08:20:29;99709.88;;;-7.78;63.60
80137;BME280;69466;55.948;37.484;2024-01-10T08:22:55;99679.34;;;-7.81;63.76
80137;BME280;69466;55.948;37.484;2024-01-10T08:25:21;99694.69;;;-7.87;64.15
80137;BME280;69466;55.948;37.484;2024-01-10T08:27:48;99682.38;;;-7.87;64.06
80137;BME280;69466;55.948;37.484;2024-01-10T08:30:15;99697.69;;;-7.67;63.75
80137;BME280;69466;55.948;37.484;2024-01-10T08:32:41;99700.03;;;-7.62;63.71
80137;BME280;69466;55.948;37.484;2024-01-10T08:35:07;99694.75;;;-7.75;64.16
80137;BME280;69466;55.948;37.484;2024-01-10T08:37:38;99695.56;;;-7.74;64.01
80137;BME280;69466;55.948;37.484;2024-01-10T08:40:10;99694.22;;;-7.67;63.48
80137;BME280;69466;55.948;37.484;2024-01-10T08:42:38;99691.50;;;-7.92;63.38
80137;BME280;69466;55.948;37.484;2024-01-10T08:45:05;99689.03;;;-7.81;63.79
80137;BME280;69466;55.948;37.484;2024-01-10T08:47:31;99704.44;;;-7.75;63.79
80137;BME280;69466;55.948;37.484;2024-01-10T08:49:58;99705.69;;;-7.81;64.33
80137;BME280;69466;55.948;37.484;2024-01-10T08:52:24;99704.81;;;-7.81;63.85
80137;BME280;69466;55.948;37.484;2024-01-10T08:54:50;99704.53;;;-7.77;63.74
80137;BME280;69466;55.948;37.484;2024-01-10T08:57:16;99704.28;;;-7.86;63.71
80137;BME280;69466;55.948;37.484;2024-01-10T08:59:42;99701.06;;;-7.65;63.29
80137;BME280;69466;55.948;37.484;2024-01-10T09:02:08;99720.56;;;-7.54;63.35
80137;BME280;69466;55.948;37.484;2024-01-10T09:04:34;99707.50;;;-7.56;62.83
80137;BME280;69466;55.948;37.484;2024-01-10T09:07:00;99724.91;;;-7.28;62.30
80137;BME280;69466;55.948;37.484;2024-01-10T09:09:26;99735.06;;;-7.22;62.58
80137;BME280;69466;55.948;37.484;2024-01-10T09:11:53;99713.44;;;-7.14;61.92
80137;BME280;69466;55.948;37.484;2024-01-10T09:14:19;99730.84;;;-6.99;62.02
80137;BME280;69466;55.948;37.484;2024-01-10T09:16:46;99726.06;;;-6.82;61.72
80137;BME280;69466;55.948;37.484;2024-01-10T09:19:12;99730.69;;;-6.73;60.89
80137;BME280;69466;55.948;37.484;2024-01-10T09:21:39;99734.38;;;-6.62;60.80
80137;BME280;69466;55.948;37.484;2024-01-10T09:24:05;99732.50;;;-6.60;60.96
80137;BME280;69466;55.948;37.484;2024-01-10T09:26:34;99740.13;;;-6.45;60.32
80137;BME280;69466;55.948;37.484;2024-01-10T09:29:01;99745.69;;;-6.60;60.69
80137;BME280;69466;55.948;37.484;2024-01-10T09:31:27;99746.84;;;-6.64;61.24
80137;BME280;69466;55.948;37.484;2024-01-10T09:33:54;99739.22;;;-6.69;60.93
80137;BME280;69466;55.948;37.484;2024-01-10T09:36:20;99745.88;;;-6.63;61.09
80137;BME280;69466;55.948;37.484;2024-01-10T09:38:46;99742.81;;;-6.57;60.90
80137;BME280;69466;55.948;37.484;2024-01-10T09:41:16;99743.19;;;-6.38;60.80
80137;BME280;69466;55.948;37.484;2024-01-10T09:43:42;99724.44;;;-6.46;60.91
80137;BME280;69466;55.948;37.484;2024-01-10T09:46:08;99735.16;;;-6.37;60.68
80137;BME280;69466;55.948;37.484;2024-01-10T09:48:36;99735.72;;;-6.44;60.59
80137;BME280;69466;55.948;37.484;2024-01-10T09:51:03;99738.13;;;-6.41;61.31
80137;BME280;69466;55.948;37.484;2024-01-10T09:53:31;99727.19;;;-6.48;61.03
80137;BME280;69466;55.948;37.484;2024-01-10T09:55:59;99745.63;;;-6.35;60.99
80137;BME280;69466;55.948;37.484;2024-01-10T09:58:27;99743.59;;;-6.32;61.03
80137;BME280;69466;55.948;37.484;2024-01-10T10:00:53;99749.31;;;-6.38;60.88
80137;BME280;69466;55.948;37.484;2024-01-10T10:03:19;99746.22;;;-6.32;61.26
80137;BME280;69466;55.948;37.484;2024-01-10T10:05:45;99737.31;;;-6.42;61.13
80137;BME280;69466;55.948;37.484;2024-01-10T10:08:13;99735.09;;;-6.48;61.40
80137;BME280;69466;55.948;37.484;2024-01-10T10:10:49;99718.34;;;-6.72;61.83
80137;BME280;69466;55.948;37.484;2024-01-10T10:13:28;99750.22;;;-6.75;61.74
80137;BME280;69466;55.948;37.484;2024-01-10T10:16:00;99740.72;;;-6.78;61.83
80137;BME280;69466;55.948;37.484;2024-01-10T10:18:27;99741.16;;;-6.84;62.09
80137;BME280;69466;55.948;37.484;2024-01-10T10:21:12;99727.88;;;-7.07;62.48
80137;BME280;69466;55.948;37.484;2024-01-10T10:23:57;99728.28;;;-7.01;62.88
80137;BME280;69466;55.948;37.484;2024-01-10T10:26:23;99739.78;;;-6.89;62.67
80137;BME280;69466;55.948;37.484;2024-01-10T10:28:53;99745.06;;;-6.89;62.12
80137;BME280;69466;55.948;37.484;2024-01-10T10:31:20;99756.25;;;-6.86;62.07
80137;BME280;69466;55.948;37.484;2024-01-10T10:33:46;99747.63;;;-6.88;62.29
80137;BME280;69466;55.948;37.484;2024-01-10T10:36:14;99745.38;;;-6.94;62.19
80137;BME280;69466;55.948;37.484;2024-01-10T10:38:40;99725.03;;;-7.04;62.34
80137;BME280;69466;55.948;37.484;2024-01-10T10:41:07;99740.34;;;-6.97;62.14
80137;BME280;69466;55.948;37.484;2024-01-10T10:43:38;99723.66;;;-6.97;61.80
80137;BME280;69466;55.948;37.484;2024-01-10T10:46:05;99738.75;;;-7.12;62.22
80137;BME280;69466;55.948;37.484;2024-01-10T10:48:36;99742.22;;;-6.99;62.22
80137;BME280;69466;55.948;37.484;2024-01-10T10:51:08;99756.56;;;-6.78;62.10
80137;BME280;69466;55.948;37.484;2024-01-10T10:53:36;99758.88;;;-6.86;61.99
80137;BME280;69466;55.948;37.484;2024-01-10T10:56:07;99750.22;;;-7.00;62.64
80137;BME280;69466;55.948;37.484;2024-01-10T10:58:35;99747.09;;;-6.93;62.06
80137;BME280;69466;55.948;37.484;2024-01-10T11:01:06;99746.88;;;-6.90;61.97
80137;BME280;69466;55.948;37.484;2024-01-10T11:03:35;99736.53;;;-6.93;62.15
80137;BME280;69466;55.948;37.484;2024-01-10T11:06:03;99741.28;;;-6.85;61.98
80137;BME280;69466;55.948;37.484;2024-01-10T11:08:50;99750.03;;;-6.85;61.87
80137;BME280;69466;55.948;37.484;2024-01-10T11:14:30;99753.31;;;-6.94;62.00
80137;BME280;69466;55.948;37.484;2024-01-10T11:20:25;99746.56;;;-6.98;61.83
80137;BME280;69466;55.948;37.484;2024-01-10T11:23:36;99740.63;;;-7.27;62.20
80137;BME280;69466;55.948;37.484;2024-01-10T11:25:59;99749.53;;;-7.15;62.93
80137;BME280;69466;55.948;37.484;2024-01-10T11:28:31;99747.91;;;-7.18;62.37
80137;BME280;69466;55.948;37.484;2024-01-10T11:30:58;99744.13;;;-7.13;62.30
80137;BME280;69466;55.948;37.484;2024-01-10T11:33:32;99763.72;;;-7.05;62.09
80137;BME280;69466;55.948;37.484;2024-01-10T11:36:16;99749.28;;;-7.25;62.89
80137;BME280;69466;55.948;37.484;2024-01-10T11:41:13;99749.69;;;-7.18;62.67
80137;BME280;69466;55.948;37.484;2024-01-10T11:43:40;99756.97;;;-7.34;63.05
80137;BME280;69466;55.948;37.484;2024-01-10T11:46:07;99747.78;;;-7.41;63.12
80137;BME280;69466;55.948;37.484;2024-01-10T11:48:34;99736.47;;;-7.56;62.89
80137;BME280;69466;55.948;37.484;2024-01-10T11:51:03;99757.38;;;-7.53;63.31
80137;BME280;69466;55.948;37.484;2024-01-10T11:53:44;99763.78;;;-7.57;63.37
80137;BME280;69466;55.948;37.484;2024-01-10T11:56:16;99758.69;;;-7.73;63.92
80137;BME280;69466;55.948;37.484;2024-01-10T11:59:02;99764.41;;;-7.66;63.60
80137;BME280;69466;55.948;37.484;2024-01-10T12:01:33;99745.50;;;-7.73;63.90
80137;BME280;69466;55.948;37.484;2024-01-10T12:04:02;99749.44;;;-7.66;64.13
80137;BME280;69466;55.948;37.484;2024-01-10T12:06:30;99739.59;;;-7.76;64.18
80137;BME280;69466;55.948;37.484;2024-01-10T12:08:57;99720.09;;;-7.86;64.28
80137;BME280;69466;55.948;37.484;2024-01-10T12:11:23;99729.69;;;-7.85;64.37
80137;BME280;69466;55.948;37.484;2024-01-10T12:13:49;99743.09;;;-7.76;64.20
80137;BME280;69466;55.948;37.484;2024-01-10T12:16:15;99749.63;;;-7.69;63.79
80137;BME280;69466;55.948;37.484;2024-01-10T12:18:43;99745.41;;;-7.71;64.17
80137;BME280;69466;55.948;37.484;2024-01-10T12:21:10;99739.69;;;-7.78;64.18
80137;BME280;69466;55.948;37.484;2024-01-10T12:23:38;99745.69;;;-7.88;64.48
80137;BME280;69466;55.948;37.484;2024-01-10T12:26:07;99740.81;;;-7.94;64.76
80137;BME280;69466;55.948;37.484;2024-01-10T12:28:35;99753.13;;;-7.95;64.78
80137;BME280;69466;55.948;37.484;2024-01-10T12:31:03;99738.28;;;-7.96;64.65
80137;BME280;69466;55.948;37.484;2024-01-10T12:33:30;99743.88;;;-7.88;64.84
80137;BME280;69466;55.948;37.484;2024-01-10T12:36:08;99755.38;;;-7.89;65.13
80137;BME280;69466;55.948;37.484;2024-01-10T12:38:40;99723.31;;;-7.95;64.91
80137;BME280;69466;55.948;37.484;2024-01-10T12:41:06;99748.13;;;-7.85;64.62
80137;BME280;69466;55.948;37.484;2024-01-10T12:43:35;99750.28;;;-7.92;64.74
80137;BME280;69466;55.948;37.484;2024-01-10T12:46:11;99738.47;;;-7.99;64.39
80137;BME280;69466;55.948;37.484;2024-01-10T12:48:38;99739.63;;;-8.03;65.04
80137;BME280;69466;55.948;37.484;2024-01-10T12:51:11;99733.31;;;-8.00;64.56
80137;BME280;69466;55.948;37.484;2024-01-10T12:58:17;99726.00;;;-8.10;65.02
80137;BME280;69466;55.948;37.484;2024-01-10T13:01:23;99727.66;;;-8.21;65.75
80137;BME280;69466;55.948;37.484;2024-01-10T13:04:00;99720.88;;;-8.38;65.54
80137;BME280;69466;55.948;37.484;2024-01-10T13:06:56;99709.06;;;-8.45;65.89